sensor_id;sensor_type;location;lat;lon;timestamp;P1;durP1;ratioP1;P2;durP2;ratioP2
16173;SDS011;14031;50.158;8.626;2023-11-19T00:02:24;5.67;;;4.87;;
16173;SDS011;14031;50.158;8.626;2023-11-19T00:04:51;5.30;;;4.80;;
16173;SDS011;14031;50.158;8.626;2023-11-19T00:07:19;5.33;;;4.87;;
16173;SDS011;14031;50.158;8.626;2023-11-19T00:09:47;4.73;;;4.37;;
16173;SDS011;14031;50.158;8.626;2023-11-19T00:12:14;5.67;;;5.23;;
16173;SDS011;14031;50.158;8.626;2023-11-19T00:14:41;5.97;;;5.43;;
16173;SDS011;14031;50.158;8.626;2023-11-19T00:17:07;7.57;;;5.10;;
16173;SDS011;14031;50.158;8.626;2023-11-19T00:19:34;4.90;;;4.60;;
16173;SDS011;14031;50.158;8.626;2023-11-19T00:22:01;5.33;;;4.80;;
16173;SDS011;14031;50.158;8.626;2023-11-19T00:24:28;5.13;;;4.83;;
16173;SDS011;14031;50.158;8.626;2023-11-19T00:26:57;5.57;;;4.97;;
16173;SDS011;14031;50.158;8.626;2023-11-19T00:29:23;8.30;;;5.30;;
16173;SDS011;14031;50.158;8.626;2023-11-19T00:31:50;6.40;;;5.27;;
16173;SDS011;14031;50.158;8.626;2023-11-19T00:34:17;5.70;;;5.20;;
16173;SDS011;14031;50.158;8.626;2023-11-19T00:36:46;5.97;;;5.43;;
16173;SDS011;14031;50.158;8.626;2023-11-19T00:39:13;5.33;;;4.93;;
16173;SDS011;14031;50.158;8.626;2023-11-19T00:41:41;5.53;;;5.13;;
16173;SDS011;14031;50.158;8.626;2023-11-19T00:44:09;6.37;;;5.50;;
16173;SDS011;14031;50.158;8.626;2023-11-19T00:46:35;6.07;;;5.57;;
16173;SDS011;14031;50.158;8.626;2023-11-19T00:49:03;5.93;;;5.50;;
16173;SDS011;14031;50.158;8.626;2023-11-19T00:51:30;5.83;;;5.37;;
16173;SDS011;14031;50.158;8.626;2023-11-19T00:53:57;5.97;;;5.57;;
16173;SDS011;14031;50.158;8.626;2023-11-19T00:56:24;5.83;;;5.30;;
16173;SDS011;14031;50.158;8.626;2023-11-19T00:58:51;6.03;;;5.63;;
16173;SDS011;14031;50.158;8.626;2023-11-19T01:01:19;6.67;;;6.17;;
16173;SDS011;14031;50.158;8.626;2023-11-19T01:03:46;5.80;;;5.20;;
16173;SDS011;14031;50.158;8.626;2023-11-19T01:06:13;8.07;;;5.77;;
16173;SDS011;14031;50.158;8.626;2023-11-19T01:08:42;6.37;;;5.80;;
16173;SDS011;14031;50.158;8.626;2023-11-19T01:11:11;6.57;;;5.90;;
16173;SDS011;14031;50.158;8.626;2023-11-19T01:13:46;5.97;;;5.47;;
16173;SDS011;14031;50.158;8.626;2023-11-19T01:16:13;6.13;;;5.73;;
16173;SDS011;14031;50.158;8.626;2023-11-19T01:18:41;6.23;;;5.80;;
16173;SDS011;14031;50.158;8.626;2023-11-19T01:21:08;5.90;;;5.50;;
16173;SDS011;14031;50.158;8.626;2023-11-19T01:23:34;6.87;;;6.17;;
16173;SDS011;14031;50.158;8.626;2023-11-19T01:26:02;6.17;;;5.60;;
16173;SDS011;14031;50.158;8.626;2023-11-19T01:28:30;6.67;;;5.90;;
16173;SDS011;14031;50.158;8.626;2023-11-19T01:30:57;7.53;;;5.83;;
16173;SDS011;14031;50.158;8.626;2023-11-19T01:33:23;6.10;;;5.50;;
16173;SDS011;14031;50.158;8.626;2023-11-19T01:35:52;5.30;;;4.93;;
16173;SDS011;14031;50.158;8.626;2023-11-19T01:38:18;5.90;;;5.40;;
16173;SDS011;14031;50.158;8.626;2023-11-19T01:40:45;6.07;;;5.47;;
16173;SDS011;14031;50.158;8.626;2023-11-19T01:43:12;5.90;;;5.40;;
16173;SDS011;14031;50.158;8.626;2023-11-19T01:45:56;5.53;;;5.13;;
16173;SDS011;14031;50.158;8.626;2023-11-19T01:48:23;5.73;;;5.33;;
16173;SDS011;14031;50.158;8.626;2023-11-19T01:50:51;5.77;;;5.23;;
16173;SDS011;14031;50.158;8.626;2023-11-19T01:53:19;5.60;;;5.20;;
16173;SDS011;14031;50.158;8.626;2023-11-19T01:55:46;5.40;;;5.10;;
16173;SDS011;14031;50.158;8.626;2023-11-19T01:58:13;5.17;;;4.77;;
16173;SDS011;14031;50.158;8.626;2023-11-19T02:00:41;5.70;;;5.30;;
16173;SDS011;14031;50.158;8.626;2023-11-19T02:03:10;5.50;;;5.10;;
16173;SDS011;14031;50.158;8.626;2023-11-19T02:05:38;5.80;;;5.40;;
16173;SDS011;14031;50.158;8.626;2023-11-19T02:08:07;5.57;;;5.17;;
16173;SDS011;14031;50.158;8.626;2023-11-19T02:10:33;5.63;;;5.13;;
16173;SDS011;14031;50.158;8.626;2023-11-19T02:13:01;5.50;;;5.20;;
16173;SDS011;14031;50.158;8.626;2023-11-19T02:15:30;5.10;;;4.80;;
16173;SDS011;14031;50.158;8.626;2023-11-19T02:17:57;5.47;;;5.07;;
16173;SDS011;14031;50.158;8.626;2023-11-19T02:20:43;5.90;;;4.50;;
16173;SDS011;14031;50.158;8.626;2023-11-19T02:23:11;5.40;;;5.00;;
16173;SDS011;14031;50.158;8.626;2023-11-19T02:25:39;5.23;;;4.80;;
16173;SDS011;14031;50.158;8.626;2023-11-19T02:28:08;4.87;;;4.53;;
16173;SDS011;14031;50.158;8.626;2023-11-19T02:30:37;4.53;;;4.33;;
16173;SDS011;14031;50.158;8.626;2023-11-19T02:33:03;5.30;;;5.00;;
16173;SDS011;14031;50.158;8.626;2023-11-19T02:35:31;5.13;;;4.83;;
16173;SDS011;14031;50.158;8.626;2023-11-19T02:37:59;5.10;;;4.70;;
16173;SDS011;14031;50.158;8.626;2023-11-19T02:40:25;4.70;;;4.50;;
16173;SDS011;14031;50.158;8.626;2023-11-19T02:42:53;5.00;;;4.60;;
16173;SDS011;14031;50.158;8.626;2023-11-19T02:45:22;4.97;;;4.60;;
16173;SDS011;14031;50.158;8.626;2023-11-19T02:47:50;5.37;;;4.97;;
16173;SDS011;14031;50.158;8.626;2023-11-19T02:50:17;4.50;;;4.20;;
16173;SDS011;14031;50.158;8.626;2023-11-19T02:52:50;5.30;;;4.87;;
16173;SDS011;14031;50.158;8.626;2023-11-19T02:55:18;4.80;;;4.50;;
16173;SDS011;14031;50.158;8.626;2023-11-19T02:57:45;5.03;;;4.57;;
16173;SDS011;14031;50.158;8.626;2023-11-19T03:00:14;5.10;;;4.60;;
16173;SDS011;14031;50.158;8.626;2023-11-19T03:02:42;4.43;;;4.13;;
16173;SDS011;14031;50.158;8.626;2023-11-19T03:05:11;4.73;;;4.43;;
16173;SDS011;14031;50.158;8.626;2023-11-19T03:07:39;4.00;;;3.80;;
16173;SDS011;14031;50.158;8.626;2023-11-19T03:10:08;4.20;;;3.90;;
16173;SDS011;14031;50.158;8.626;2023-11-19T03:12:38;4.17;;;3.87;;
16173;SDS011;14031;50.158;8.626;2023-11-19T03:15:05;4.07;;;3.80;;
16173;SDS011;14031;50.158;8.626;2023-11-19T03:17:34;4.13;;;3.80;;
16173;SDS011;14031;50.158;8.626;2023-11-19T03:20:03;4.13;;;3.93;;
16173;SDS011;14031;50.158;8.626;2023-11-19T03:22:32;4.00;;;3.70;;
16173;SDS011;14031;50.158;8.626;2023-11-19T03:25:00;3.73;;;3.53;;
16173;SDS011;14031;50.158;8.626;2023-11-19T03:27:26;4.57;;;3.93;;
16173;SDS011;14031;50.158;8.626;2023-11-19T03:29:53;4.17;;;3.87;;
16173;SDS011;14031;50.158;8.626;2023-11-19T03:32:20;5.67;;;3.70;;
16173;SDS011;14031;50.158;8.626;2023-11-19T03:34:47;3.70;;;3.50;;
16173;SDS011;14031;50.158;8.626;2023-11-19T03:37:15;4.10;;;3.80;;
16173;SDS011;14031;50.158;8.626;2023-11-19T03:39:42;3.80;;;3.60;;
16173;SDS011;14031;50.158;8.626;2023-11-19T03:42:09;4.07;;;3.87;;
16173;SDS011;14031;50.158;8.626;2023-11-19T03:44:38;3.33;;;3.13;;
16173;SDS011;14031;50.158;8.626;2023-11-19T03:47:05;3.87;;;3.63;;
16173;SDS011;14031;50.158;8.626;2023-11-19T03:49:32;3.93;;;3.70;;
16173;SDS011;14031;50.158;8.626;2023-11-19T03:51:58;3.70;;;3.50;;
16173;SDS011;14031;50.158;8.626;2023-11-19T03:54:27;4.10;;;3.90;;
16173;SDS011;14031;50.158;8.626;2023-11-19T03:56:54;4.40;;;3.43;;
16173;SDS011;14031;50.158;8.626;2023-11-19T03:59:20;4.73;;;4.40;;
16173;SDS011;14031;50.158;8.626;2023-11-19T04:01:47;4.37;;;4.07;;
16173;SDS011;14031;50.158;8.626;2023-11-19T04:04:14;4.40;;;4.20;;
16173;SDS011;14031;50.158;8.626;2023-11-19T04:06:41;5.53;;;4.13;;
16173;SDS011;14031;50.158;8.626;2023-11-19T04:09:07;4.73;;;4.43;;
16173;SDS011;14031;50.158;8.626;2023-11-19T04:11:36;4.70;;;4.30;;
16173;SDS011;14031;50.158;8.626;2023-11-19T04:14:05;4.00;;;3.80;;
16173;SDS011;14031;50.158;8.626;2023-11-19T04:16:31;4.30;;;3.90;;
16173;SDS011;14031;50.158;8.626;2023-11-19T04:18:58;3.80;;;3.60;;
16173;SDS011;14031;50.158;8.626;2023-11-19T04:21:25;4.23;;;4.03;;
16173;SDS011;14031;50.158;8.626;2023-11-19T04:23:52;3.90;;;3.70;;
16173;SDS011;14031;50.158;8.626;2023-11-19T04:26:18;3.57;;;3.33;;
16173;SDS011;14031;50.158;8.626;2023-11-19T04:28:46;3.50;;;3.30;;
16173;SDS011;14031;50.158;8.626;2023-11-19T04:31:14;3.80;;;3.50;;
16173;SDS011;14031;50.158;8.626;2023-11-19T04:33:41;6.27;;;3.43;;
16173;SDS011;14031;50.158;8.626;2023-11-19T04:36:08;3.27;;;3.03;;
16173;SDS011;14031;50.158;8.626;2023-11-19T04:38:36;3.30;;;3.10;;
16173;SDS011;14031;50.158;8.626;2023-11-19T04:41:03;3.33;;;3.13;;
16173;SDS011;14031;50.158;8.626;2023-11-19T04:43:31;3.43;;;3.07;;
16173;SDS011;14031;50.158;8.626;2023-11-19T04:45:59;2.90;;;2.80;;
16173;SDS011;14031;50.158;8.626;2023-11-19T04:48:29;3.43;;;3.23;;
16173;SDS011;14031;50.158;8.626;2023-11-19T04:50:56;5.17;;;2.50;;
16173;SDS011;14031;50.158;8.626;2023-11-19T04:53:23;3.83;;;2.90;;
16173;SDS011;14031;50.158;8.626;2023-11-19T04:55:49;2.83;;;2.70;;
16173;SDS011;14031;50.158;8.626;2023-11-19T04:58:16;3.00;;;2.80;;
16173;SDS011;14031;50.158;8.626;2023-11-19T05:00:44;2.90;;;2.70;;
16173;SDS011;14031;50.158;8.626;2023-11-19T05:03:12;3.13;;;2.83;;
16173;SDS011;14031;50.158;8.626;2023-11-19T05:05:39;2.83;;;2.57;;
16173;SDS011;14031;50.158;8.626;2023-11-19T05:08:05;2.70;;;2.60;;
16173;SDS011;14031;50.158;8.626;2023-11-19T05:10:32;2.50;;;2.40;;
16173;SDS011;14031;50.158;8.626;2023-11-19T05:12:59;2.73;;;2.63;;
16173;SDS011;14031;50.158;8.626;2023-11-19T05:15:25;2.50;;;2.40;;
16173;SDS011;14031;50.158;8.626;2023-11-19T05:17:52;2.50;;;2.40;;
16173;SDS011;14031;50.158;8.626;2023-11-19T05:20:20;2.70;;;2.60;;
16173;SDS011;14031;50.158;8.626;2023-11-19T05:22:47;2.83;;;2.73;;
16173;SDS011;14031;50.158;8.626;2023-11-19T05:25:17;2.70;;;2.60;;
16173;SDS011;14031;50.158;8.626;2023-11-19T05:27:45;3.07;;;2.80;;
16173;SDS011;14031;50.158;8.626;2023-11-19T05:30:12;3.47;;;3.17;;
16173;SDS011;14031;50.158;8.626;2023-11-19T05:32:38;3.07;;;2.77;;
16173;SDS011;14031;50.158;8.626;2023-11-19T05:35:06;3.13;;;3.00;;
16173;SDS011;14031;50.158;8.626;2023-11-19T05:37:35;3.00;;;2.90;;
16173;SDS011;14031;50.158;8.626;2023-11-19T05:40:01;2.80;;;2.70;;
16173;SDS011;14031;50.158;8.626;2023-11-19T05:42:31;2.60;;;2.50;;
16173;SDS011;14031;50.158;8.626;2023-11-19T05:44:59;3.10;;;3.00;;
16173;SDS011;14031;50.158;8.626;2023-11-19T05:47:26;2.90;;;2.70;;
16173;SDS011;14031;50.158;8.626;2023-11-19T05:49:52;3.20;;;3.10;;
16173;SDS011;14031;50.158;8.626;2023-11-19T05:52:19;2.40;;;2.30;;
16173;SDS011;14031;50.158;8.626;2023-11-19T05:54:49;2.67;;;2.57;;
16173;SDS011;14031;50.158;8.626;2023-11-19T05:57:17;3.13;;;2.73;;
16173;SDS011;14031;50.158;8.626;2023-11-19T05:59:45;3.20;;;3.00;;
16173;SDS011;14031;50.158;8.626;2023-11-19T06:02:12;2.87;;;2.70;;
16173;SDS011;14031;50.158;8.626;2023-11-19T06:04:38;2.97;;;2.87;;
16173;SDS011;14031;50.158;8.626;2023-11-19T06:07:06;3.30;;;3.00;;
16173;SDS011;14031;50.158;8.626;2023-11-19T06:09:32;3.33;;;3.20;;
16173;SDS011;14031;50.158;8.626;2023-11-19T06:12:00;2.60;;;2.50;;
16173;SDS011;14031;50.158;8.626;2023-11-19T06:14:28;3.10;;;2.90;;
16173;SDS011;14031;50.158;8.626;2023-11-19T06:16:55;2.80;;;2.70;;
16173;SDS011;14031;50.158;8.626;2023-11-19T06:19:22;2.93;;;2.73;;
16173;SDS011;14031;50.158;8.626;2023-11-19T06:21:49;3.77;;;3.47;;
16173;SDS011;14031;50.158;8.626;2023-11-19T06:24:16;3.13;;;3.00;;
16173;SDS011;14031;50.158;8.626;2023-11-19T06:26:43;3.10;;;2.90;;
16173;SDS011;14031;50.158;8.626;2023-11-19T06:29:11;3.60;;;3.30;;
16173;SDS011;14031;50.158;8.626;2023-11-19T06:31:44;3.13;;;2.93;;
16173;SDS011;14031;50.158;8.626;2023-11-19T06:34:13;3.77;;;3.43;;
16173;SDS011;14031;50.158;8.626;2023-11-19T06:36:41;3.67;;;3.47;;
16173;SDS011;14031;50.158;8.626;2023-11-19T06:39:08;3.17;;;3.00;;
16173;SDS011;14031;50.158;8.626;2023-11-19T06:41:35;3.10;;;2.90;;
16173;SDS011;14031;50.158;8.626;2023-11-19T06:44:03;3.37;;;3.17;;
16173;SDS011;14031;50.158;8.626;2023-11-19T06:46:31;3.27;;;2.97;;
16173;SDS011;14031;50.158;8.626;2023-11-19T06:48:58;2.93;;;2.57;;
16173;SDS011;14031;50.158;8.626;2023-11-19T06:51:25;2.87;;;2.67;;
16173;SDS011;14031;50.158;8.626;2023-11-19T06:53:52;2.60;;;2.50;;
16173;SDS011;14031;50.158;8.626;2023-11-19T06:56:20;2.67;;;2.57;;
16173;SDS011;14031;50.158;8.626;2023-11-19T06:58:47;3.00;;;2.90;;
16173;SDS011;14031;50.158;8.626;2023-11-19T07:01:14;2.67;;;2.57;;
16173;SDS011;14031;50.158;8.626;2023-11-19T07:03:42;3.10;;;3.00;;
16173;SDS011;14031;50.158;8.626;2023-11-19T07:06:10;2.93;;;2.73;;
16173;SDS011;14031;50.158;8.626;2023-11-19T07:08:38;3.43;;;3.17;;
16173;SDS011;14031;50.158;8.626;2023-11-19T07:11:04;3.00;;;2.60;;
16173;SDS011;14031;50.158;8.626;2023-11-19T07:13:31;3.50;;;3.20;;
16173;SDS011;14031;50.158;8.626;2023-11-19T07:15:58;2.97;;;2.80;;
16173;SDS011;14031;50.158;8.626;2023-11-19T07:18:25;2.80;;;2.70;;
16173;SDS011;14031;50.158;8.626;2023-11-19T07:20:53;3.50;;;3.30;;
16173;SDS011;14031;50.158;8.626;2023-11-19T07:23:20;2.83;;;2.70;;
16173;SDS011;14031;50.158;8.626;2023-11-19T07:25:47;5.53;;;2.80;;
16173;SDS011;14031;50.158;8.626;2023-11-19T07:28:15;3.00;;;2.80;;
16173;SDS011;14031;50.158;8.626;2023-11-19T07:30:42;3.30;;;3.20;;
16173;SDS011;14031;50.158;8.626;2023-11-19T07:33:09;2.73;;;2.53;;
16173;SDS011;14031;50.158;8.626;2023-11-19T07:35:36;2.70;;;2.60;;
16173;SDS011;14031;50.158;8.626;2023-11-19T07:38:05;3.30;;;3.00;;
16173;SDS011;14031;50.158;8.626;2023-11-19T07:40:31;4.87;;;2.70;;
16173;SDS011;14031;50.158;8.626;2023-11-19T07:42:58;3.20;;;3.00;;
16173;SDS011;14031;50.158;8.626;2023-11-19T07:45:25;3.00;;;2.80;;
16173;SDS011;14031;50.158;8.626;2023-11-19T07:47:52;3.13;;;2.93;;
16173;SDS011;14031;50.158;8.626;2023-11-19T07:50:18;3.00;;;2.80;;
16173;SDS011;14031;50.158;8.626;2023-11-19T07:52:45;4.20;;;2.50;;
16173;SDS011;14031;50.158;8.626;2023-11-19T07:55:13;3.53;;;3.23;;
16173;SDS011;14031;50.158;8.626;2023-11-19T07:57:40;3.63;;;3.33;;
16173;SDS011;14031;50.158;8.626;2023-11-19T08:00:07;3.40;;;3.30;;
16173;SDS011;14031;50.158;8.626;2023-11-19T08:02:37;4.00;;;3.73;;
16173;SDS011;14031;50.158;8.626;2023-11-19T08:05:04;3.37;;;3.17;;
16173;SDS011;14031;50.158;8.626;2023-11-19T08:07:31;3.57;;;3.37;;
16173;SDS011;14031;50.158;8.626;2023-11-19T08:09:58;4.40;;;4.10;;
16173;SDS011;14031;50.158;8.626;2023-11-19T08:12:27;4.17;;;3.77;;
16173;SDS011;14031;50.158;8.626;2023-11-19T08:14:54;4.73;;;3.63;;
16173;SDS011;14031;50.158;8.626;2023-11-19T08:17:20;4.63;;;4.33;;
16173;SDS011;14031;50.158;8.626;2023-11-19T08:19:48;4.83;;;4.43;;
16173;SDS011;14031;50.158;8.626;2023-11-19T08:22:15;3.87;;;3.67;;
16173;SDS011;14031;50.158;8.626;2023-11-19T08:24:42;3.07;;;2.87;;
16173;SDS011;14031;50.158;8.626;2023-11-19T08:27:09;4.17;;;3.87;;
16173;SDS011;14031;50.158;8.626;2023-11-19T08:29:37;3.77;;;3.57;;
16173;SDS011;14031;50.158;8.626;2023-11-19T08:32:04;3.90;;;3.60;;
16173;SDS011;14031;50.158;8.626;2023-11-19T08:34:32;4.10;;;3.90;;
16173;SDS011;14031;50.158;8.626;2023-11-19T08:36:59;4.43;;;4.03;;
16173;SDS011;14031;50.158;8.626;2023-11-19T08:39:26;6.23;;;4.20;;
16173;SDS011;14031;50.158;8.626;2023-11-19T08:41:53;4.40;;;4.20;;
16173;SDS011;14031;50.158;8.626;2023-11-19T08:44:20;5.07;;;4.77;;
16173;SDS011;14031;50.158;8.626;2023-11-19T08:46:48;5.33;;;4.73;;
16173;SDS011;14031;50.158;8.626;2023-11-19T08:49:15;4.60;;;4.37;;
16173;SDS011;14031;50.158;8.626;2023-11-19T08:51:42;5.30;;;5.00;;
16173;SDS011;14031;50.158;8.626;2023-11-19T08:54:10;5.07;;;4.77;;
16173;SDS011;14031;50.158;8.626;2023-11-19T08:56:37;5.00;;;4.53;;
16173;SDS011;14031;50.158;8.626;2023-11-19T08:59:05;4.87;;;4.47;;
16173;SDS011;14031;50.158;8.626;2023-11-19T09:01:31;4.60;;;4.40;;
16173;SDS011;14031;50.158;8.626;2023-11-19T09:04:00;4.70;;;4.37;;
16173;SDS011;14031;50.158;8.626;2023-11-19T09:06:26;4.33;;;4.13;;
16173;SDS011;14031;50.158;8.626;2023-11-19T09:08:53;3.90;;;3.70;;
16173;SDS011;14031;50.158;8.626;2023-11-19T09:11:23;4.20;;;3.90;;
16173;SDS011;14031;50.158;8.626;2023-11-19T09:13:50;3.97;;;3.77;;
16173;SDS011;14031;50.158;8.626;2023-11-19T09:16:16;3.90;;;3.70;;
16173;SDS011;14031;50.158;8.626;2023-11-19T09:18:43;5.33;;;4.03;;
16173;SDS011;14031;50.158;8.626;2023-11-19T09:21:11;4.13;;;3.83;;
16173;SDS011;14031;50.158;8.626;2023-11-19T09:23:38;3.87;;;3.57;;
16173;SDS011;14031;50.158;8.626;2023-11-19T09:26:05;3.63;;;3.43;;
16173;SDS011;14031;50.158;8.626;2023-11-19T09:28:35;4.87;;;4.50;;
16173;SDS011;14031;50.158;8.626;2023-11-19T09:31:01;4.07;;;3.60;;
16173;SDS011;14031;50.158;8.626;2023-11-19T09:33:29;3.30;;;3.10;;
16173;SDS011;14031;50.158;8.626;2023-11-19T09:35:56;3.77;;;3.47;;
16173;SDS011;14031;50.158;8.626;2023-11-19T09:38:25;3.37;;;3.17;;
16173;SDS011;14031;50.158;8.626;2023-11-19T09:40:52;3.33;;;3.13;;
16173;SDS011;14031;50.158;8.626;2023-11-19T09:43:19;3.57;;;3.37;;
16173;SDS011;14031;50.158;8.626;2023-11-19T09:45:47;3.40;;;3.20;;
16173;SDS011;14031;50.158;8.626;2023-11-19T09:48:16;3.30;;;3.07;;
16173;SDS011;14031;50.158;8.626;2023-11-19T09:50:44;3.03;;;2.70;;
16173;SDS011;14031;50.158;8.626;2023-11-19T09:53:11;3.17;;;2.97;;
16173;SDS011;14031;50.158;8.626;2023-11-19T09:55:39;2.87;;;2.77;;
16173;SDS011;14031;50.158;8.626;2023-11-19T09:58:07;2.87;;;2.67;;
16173;SDS011;14031;50.158;8.626;2023-11-19T10:00:34;4.73;;;2.60;;
16173;SDS011;14031;50.158;8.626;2023-11-19T10:03:00;3.37;;;3.10;;
16173;SDS011;14031;50.158;8.626;2023-11-19T10:05:30;3.60;;;3.30;;
16173;SDS011;14031;50.158;8.626;2023-11-19T10:07:57;3.33;;;3.03;;
16173;SDS011;14031;50.158;8.626;2023-11-19T10:10:24;3.43;;;2.67;;
16173;SDS011;14031;50.158;8.626;2023-11-19T10:12:52;3.80;;;2.77;;
16173;SDS011;14031;50.158;8.626;2023-11-19T10:15:20;6.73;;;2.43;;
16173;SDS011;14031;50.158;8.626;2023-11-19T10:17:49;5.90;;;2.03;;
16173;SDS011;14031;50.158;8.626;2023-11-19T10:20:16;2.03;;;1.90;;
16173;SDS011;14031;50.158;8.626;2023-11-19T10:22:43;2.57;;;2.37;;
16173;SDS011;14031;50.158;8.626;2023-11-19T10:25:21;3.13;;;2.47;;
16173;SDS011;14031;50.158;8.626;2023-11-19T10:27:48;5.10;;;2.77;;
16173;SDS011;14031;50.158;8.626;2023-11-19T10:30:18;5.50;;;3.00;;
16173;SDS011;14031;50.158;8.626;2023-11-19T10:32:54;2.40;;;2.20;;
16173;SDS011;14031;50.158;8.626;2023-11-19T10:35:29;2.53;;;1.73;;
16173;SDS011;14031;50.158;8.626;2023-11-19T10:37:58;3.63;;;2.37;;
16173;SDS011;14031;50.158;8.626;2023-11-19T10:40:36;4.67;;;1.63;;
16173;SDS011;14031;50.158;8.626;2023-11-19T10:43:04;2.13;;;1.53;;
16173;SDS011;14031;50.158;8.626;2023-11-19T10:45:34;8.27;;;1.83;;
16173;SDS011;14031;50.158;8.626;2023-11-19T10:48:01;7.13;;;2.07;;
16173;SDS011;14031;50.158;8.626;2023-11-19T10:50:31;3.30;;;1.63;;
16173;SDS011;14031;50.158;8.626;2023-11-19T10:52:58;7.43;;;2.90;;
16173;SDS011;14031;50.158;8.626;2023-11-19T10:55:26;3.47;;;1.60;;
16173;SDS011;14031;50.158;8.626;2023-11-19T10:57:55;5.87;;;1.77;;
16173;SDS011;14031;50.158;8.626;2023-11-19T11:00:26;4.17;;;1.50;;
16173;SDS011;14031;50.158;8.626;2023-11-19T11:03:00;8.00;;;2.00;;
16173;SDS011;14031;50.158;8.626;2023-11-19T11:05:28;7.40;;;1.90;;
16173;SDS011;14031;50.158;8.626;2023-11-19T11:07:58;7.43;;;1.60;;
16173;SDS011;14031;50.158;8.626;2023-11-19T11:10:26;4.60;;;1.67;;
16173;SDS011;14031;50.158;8.626;2023-11-19T11:12:54;6.80;;;1.87;;
16173;SDS011;14031;50.158;8.626;2023-11-19T11:15:26;6.53;;;2.00;;
16173;SDS011;14031;50.158;8.626;2023-11-19T11:17:56;8.90;;;1.93;;
16173;SDS011;14031;50.158;8.626;2023-11-19T11:20:27;7.33;;;1.87;;
16173;SDS011;14031;50.158;8.626;2023-11-19T11:22:59;7.03;;;1.90;;
16173;SDS011;14031;50.158;8.626;2023-11-19T11:25:38;6.03;;;2.07;;
16173;SDS011;14031;50.158;8.626;2023-11-19T11:28:26;14.70;;;2.07;;
16173;SDS011;14031;50.158;8.626;2023-11-19T11:31:04;7.07;;;2.10;;
16173;SDS011;14031;50.158;8.626;2023-11-19T11:33:44;4.17;;;1.63;;
16173;SDS011;14031;50.158;8.626;2023-11-19T11:36:28;7.17;;;1.93;;
16173;SDS011;14031;50.158;8.626;2023-11-19T11:38:58;12.10;;;2.00;;
16173;SDS011;14031;50.158;8.626;2023-11-19T11:41:25;5.43;;;2.10;;
16173;SDS011;14031;50.158;8.626;2023-11-19T11:43:53;6.07;;;1.93;;
16173;SDS011;14031;50.158;8.626;2023-11-19T11:49:28;11.83;;;2.37;;
16173;SDS011;14031;50.158;8.626;2023-11-19T11:51:57;6.77;;;2.07;;
16173;SDS011;14031;50.158;8.626;2023-11-19T11:54:28;8.33;;;2.73;;
16173;SDS011;14031;50.158;8.626;2023-11-19T11:57:02;10.13;;;2.67;;
16173;SDS011;14031;50.158;8.626;2023-11-19T11:59:34;7.47;;;2.23;;
16173;SDS011;14031;50.158;8.626;2023-11-19T12:02:03;10.73;;;2.60;;
16173;SDS011;14031;50.158;8.626;2023-11-19T12:04:35;7.27;;;2.53;;
16173;SDS011;14031;50.158;8.626;2023-11-19T12:07:03;7.10;;;2.00;;
16173;SDS011;14031;50.158;8.626;2023-11-19T12:09:31;7.70;;;2.50;;
16173;SDS011;14031;50.158;8.626;2023-11-19T12:12:06;5.03;;;2.07;;
16173;SDS011;14031;50.158;8.626;2023-11-19T12:17:43;5.73;;;2.00;;
16173;SDS011;14031;50.158;8.626;2023-11-19T12:20:16;5.30;;;2.30;;
16173;SDS011;14031;50.158;8.626;2023-11-19T12:22:44;9.37;;;1.87;;
16173;SDS011;14031;50.158;8.626;2023-11-19T12:25:14;7.33;;;2.07;;
16173;SDS011;14031;50.158;8.626;2023-11-19T12:27:43;6.57;;;2.20;;
16173;SDS011;14031;50.158;8.626;2023-11-19T12:30:11;8.53;;;1.93;;
16173;SDS011;14031;50.158;8.626;2023-11-19T12:32:38;7.17;;;2.07;;
16173;SDS011;14031;50.158;8.626;2023-11-19T12:35:06;5.37;;;1.80;;
16173;SDS011;14031;50.158;8.626;2023-11-19T12:37:44;2.47;;;1.70;;
16173;SDS011;14031;50.158;8.626;2023-11-19T12:40:12;6.17;;;1.90;;
16173;SDS011;14031;50.158;8.626;2023-11-19T12:42:42;5.53;;;1.80;;
16173;SDS011;14031;50.158;8.626;2023-11-19T12:45:09;4.07;;;2.03;;
16173;SDS011;14031;50.158;8.626;2023-11-19T12:47:37;7.13;;;1.80;;
16173;SDS011;14031;50.158;8.626;2023-11-19T12:50:05;3.93;;;1.70;;
16173;SDS011;14031;50.158;8.626;2023-11-19T12:52:33;10.00;;;3.70;;
16173;SDS011;14031;50.158;8.626;2023-11-19T12:55:01;10.07;;;2.97;;
16173;SDS011;14031;50.158;8.626;2023-11-19T12:57:37;4.77;;;1.73;;
16173;SDS011;14031;50.158;8.626;2023-11-19T13:00:05;6.57;;;1.80;;
16173;SDS011;14031;50.158;8.626;2023-11-19T13:02:45;2.67;;;1.60;;
16173;SDS011;14031;50.158;8.626;2023-11-19T13:05:23;5.47;;;1.42;;
16173;SDS011;14031;50.158;8.626;2023-11-19T13:08:00;4.68;;;1.73;;
16173;SDS011;14031;50.158;8.626;2023-11-19T13:10:29;3.57;;;1.70;;
16173;SDS011;14031;50.158;8.626;2023-11-19T13:12:59;5.20;;;1.77;;
16173;SDS011;14031;50.158;8.626;2023-11-19T13:15:27;2.55;;;1.42;;
16173;SDS011;14031;50.158;8.626;2023-11-19T13:17:54;5.70;;;1.60;;
16173;SDS011;14031;50.158;8.626;2023-11-19T13:20:21;4.33;;;1.53;;
16173;SDS011;14031;50.158;8.626;2023-11-19T13:22:54;5.40;;;1.70;;
16173;SDS011;14031;50.158;8.626;2023-11-19T13:25:22;7.47;;;1.63;;
16173;SDS011;14031;50.158;8.626;2023-11-19T13:27:50;4.28;;;1.52;;
16173;SDS011;14031;50.158;8.626;2023-11-19T13:30:17;4.33;;;1.60;;
16173;SDS011;14031;50.158;8.626;2023-11-19T13:32:44;4.28;;;1.48;;
16173;SDS011;14031;50.158;8.626;2023-11-19T13:35:11;4.32;;;1.80;;
16173;SDS011;14031;50.158;8.626;2023-11-19T13:37:38;7.40;;;2.23;;
16173;SDS011;14031;50.158;8.626;2023-11-19T13:40:05;4.15;;;2.30;;
16173;SDS011;14031;50.158;8.626;2023-11-19T13:42:34;6.77;;;1.93;;
16173;SDS011;14031;50.158;8.626;2023-11-19T13:45:03;4.68;;;1.95;;
16173;SDS011;14031;50.158;8.626;2023-11-19T13:47:35;4.03;;;1.73;;
16173;SDS011;14031;50.158;8.626;2023-11-19T13:50:03;6.87;;;2.10;;
16173;SDS011;14031;50.158;8.626;2023-11-19T13:52:31;6.50;;;3.00;;
16173;SDS011;14031;50.158;8.626;2023-11-19T13:54:58;11.02;;;4.45;;
16173;SDS011;14031;50.158;8.626;2023-11-19T13:57:25;2.53;;;1.63;;
16173;SDS011;14031;50.158;8.626;2023-11-19T13:59:51;4.15;;;1.92;;
16173;SDS011;14031;50.158;8.626;2023-11-19T14:02:19;5.43;;;2.10;;
16173;SDS011;14031;50.158;8.626;2023-11-19T14:04:46;5.32;;;1.73;;
16173;SDS011;14031;50.158;8.626;2023-11-19T14:07:13;8.32;;;2.00;;
16173;SDS011;14031;50.158;8.626;2023-11-19T14:09:41;5.72;;;1.80;;
16173;SDS011;14031;50.158;8.626;2023-11-19T14:12:08;7.88;;;2.67;;
16173;SDS011;14031;50.158;8.626;2023-11-19T14:14:37;6.45;;;1.60;;
16173;SDS011;14031;50.158;8.626;2023-11-19T14:17:05;3.35;;;1.60;;
16173;SDS011;14031;50.158;8.626;2023-11-19T14:19:34;4.38;;;1.67;;
16173;SDS011;14031;50.158;8.626;2023-11-19T14:22:00;4.15;;;2.40;;
16173;SDS011;14031;50.158;8.626;2023-11-19T14:24:27;7.80;;;1.80;;
16173;SDS011;14031;50.158;8.626;2023-11-19T14:26:54;5.90;;;2.20;;
16173;SDS011;14031;50.158;8.626;2023-11-19T14:29:23;3.70;;;1.73;;
16173;SDS011;14031;50.158;8.626;2023-11-19T14:31:51;6.63;;;1.73;;
16173;SDS011;14031;50.158;8.626;2023-11-19T14:34:17;5.53;;;1.70;;
16173;SDS011;14031;50.158;8.626;2023-11-19T14:36:46;13.23;;;1.90;;
16173;SDS011;14031;50.158;8.626;2023-11-19T14:39:14;3.87;;;2.27;;
16173;SDS011;14031;50.158;8.626;2023-11-19T14:41:42;5.40;;;1.57;;
16173;SDS011;14031;50.158;8.626;2023-11-19T14:44:09;5.20;;;1.60;;
16173;SDS011;14031;50.158;8.626;2023-11-19T14:46:36;9.50;;;2.23;;
16173;SDS011;14031;50.158;8.626;2023-11-19T14:49:03;5.03;;;1.70;;
16173;SDS011;14031;50.158;8.626;2023-11-19T14:51:30;2.80;;;1.43;;
16173;SDS011;14031;50.158;8.626;2023-11-19T14:53:58;8.63;;;1.77;;
16173;SDS011;14031;50.158;8.626;2023-11-19T14:56:24;3.10;;;1.73;;
16173;SDS011;14031;50.158;8.626;2023-11-19T14:58:51;5.30;;;4.00;;
16173;SDS011;14031;50.158;8.626;2023-11-19T15:01:18;3.20;;;1.93;;